createdAt,value
2023-04-12T00:00:52.867Z,79.62
2023-04-12T00:02:54.832Z,79.19
2023-04-12T00:04:57.916Z,79.18
2023-04-12T00:07:00.979Z,79.86
2023-04-12T00:09:03.966Z,80.31
2023-04-12T00:11:05.812Z,81.54
2023-04-12T00:13:08.284Z,82.31
2023-04-12T00:15:10.246Z,83.10
2023-04-12T00:17:12.322Z,84.39
2023-04-12T00:19:13.892Z,84.68
2023-04-12T00:21:19.300Z,85.11
2023-04-12T00:23:21.080Z,84.12
2023-04-12T00:25:22.590Z,83.33
2023-04-12T00:27:25.649Z,83.12
2023-04-12T00:29:27.746Z,82.36
2023-04-12T00:31:29.592Z,81.55
2023-04-12T00:33:31.099Z,81.30
2023-04-12T00:35:35.597Z,81.61
2023-04-12T00:37:38.466Z,82.58
2023-04-12T00:39:40.318Z,82.42
2023-04-12T00:41:41.840Z,82.88
2023-04-12T00:43:43.585Z,82.68
2023-04-12T00:45:46.737Z,82.99
2023-04-12T00:47:48.596Z,82.28
2023-04-12T00:49:50.388Z,81.82
2023-04-12T00:51:53.009Z,81.34
2023-04-12T00:53:59.524Z,81.38
2023-04-12T00:56:01.719Z,81.07
2023-04-12T00:58:03.500Z,81.12
2023-04-12T01:00:08.094Z,81.27
2023-04-12T01:02:09.794Z,82.42
2023-04-12T01:04:13.903Z,82.45
2023-04-12T01:06:44.622Z,82.00
2023-04-12T01:09:03.537Z,82.31
2023-04-12T01:11:26.159Z,83.33
2023-04-12T01:13:35.861Z,82.83
2023-04-12T01:15:51.411Z,82.78
2023-04-12T01:18:05.819Z,82.71
2023-04-12T01:20:13.811Z,83.03
2023-04-12T01:22:38.317Z,83.22
2023-04-12T01:25:24.198Z,81.92
2023-04-12T01:27:49.693Z,79.38
2023-04-12T01:29:52.875Z,78.53
2023-04-12T01:31:57.493Z,79.03
2023-04-12T01:34:00.942Z,77.46
2023-04-12T01:36:09.295Z,76.48
2023-04-12T01:38:11.343Z,76.23
2023-04-12T01:40:13.792Z,75.85
2023-04-12T01:42:21.336Z,76.72
2023-04-12T01:44:22.987Z,76.91
2023-04-12T01:46:24.863Z,76.89
2023-04-12T01:48:26.463Z,78.00
2023-04-12T01:50:38.863Z,79.71
2023-04-12T01:52:46.682Z,79.31
2023-04-12T01:54:54.415Z,80.39
2023-04-12T01:57:02.374Z,81.94
2023-04-12T01:59:05.472Z,83.12
2023-04-12T02:01:08.219Z,83.38
2023-04-12T02:03:13.742Z,84.31
2023-04-12T02:05:16.976Z,84.86
2023-04-12T02:07:20.531Z,84.30
2023-04-12T02:09:22.627Z,83.58
2023-04-12T02:11:24.139Z,84.47
2023-04-12T02:13:26.571Z,84.43
2023-04-12T02:15:29.114Z,85.26
2023-04-12T02:17:30.840Z,84.52
2023-04-12T02:19:32.829Z,84.78
2023-04-12T02:21:45.520Z,84.75
2023-04-12T02:23:47.054Z,84.49
2023-04-12T02:25:48.627Z,84.28
2023-04-12T02:27:51.875Z,86.21
2023-04-12T02:29:53.858Z,87.04
2023-04-12T02:31:55.381Z,87.58
2023-04-12T02:34:00.197Z,87.81
2023-04-12T02:36:02.657Z,88.09
2023-04-12T02:38:08.173Z,88.84
2023-04-12T02:40:13.171Z,89.07
2023-04-12T02:42:14.760Z,88.62
2023-04-12T02:44:16.387Z,87.80
2023-04-12T02:46:27.188Z,87.22
2023-04-12T02:48:33.492Z,87.57
2023-04-12T02:50:37.130Z,87.25
2023-04-12T02:52:49.539Z,86.80
2023-04-12T02:54:51.519Z,87.67
2023-04-12T02:56:53.699Z,86.88
2023-04-12T02:59:18.066Z,86.90
2023-04-12T03:01:41.387Z,86.38
2023-04-12T03:03:56.405Z,86.71
2023-04-12T03:06:11.450Z,86.89
2023-04-12T03:08:13.717Z,87.01
2023-04-12T03:10:24.716Z,88.52
2023-04-12T03:12:34.885Z,88.04
2023-04-12T03:14:49.052Z,87.44
2023-04-12T03:16:53.491Z,87.02
2023-04-12T03:18:56.826Z,87.35
2023-04-12T03:20:59.784Z,87.02
2023-04-12T03:23:01.678Z,88.35
2023-04-12T03:25:05.455Z,88.91
2023-04-12T03:27:08.143Z,89.87
2023-04-12T03:29:12.041Z,89.33
2023-04-12T03:31:21.518Z,88.91
2023-04-12T03:33:24.449Z,89.56
2023-04-12T03:35:30.195Z,89.52
2023-04-12T03:37:32.346Z,89.83
2023-04-12T03:39:34.027Z,88.97
2023-04-12T03:41:35.739Z,89.42
2023-04-12T03:43:40.499Z,89.09
2023-04-12T03:45:50.706Z,88.79
2023-04-12T03:47:52.590Z,88.53
2023-04-12T03:50:10.208Z,89.00
2023-04-12T03:52:13.851Z,90.22
2023-04-12T03:54:19.373Z,90.28
2023-04-12T03:56:32.498Z,91.89
2023-04-12T03:58:38.145Z,92.23
2023-04-12T04:00:42.693Z,92.61
2023-04-12T04:02:44.336Z,93.69
2023-04-12T04:04:46.139Z,93.42
2023-04-12T04:06:53.749Z,92.59
2023-04-12T04:08:57.276Z,91.73
2023-04-12T04:11:00.758Z,91.11
2023-04-12T04:13:08.085Z,90.86
2023-04-12T04:15:10.498Z,89.95
2023-04-12T04:17:12.105Z,90.53
2023-04-12T04:19:14.307Z,89.94
2023-04-12T04:21:19.483Z,90.31
2023-04-12T04:23:22.141Z,91.73
2023-04-12T04:25:29.794Z,92.46
2023-04-12T04:27:34.438Z,92.02
2023-04-12T04:29:44.309Z,91.40
2023-04-12T04:31:48.509Z,91.33
2023-04-12T04:33:50.920Z,91.14
2023-04-12T04:35:56.408Z,91.74
2023-04-12T04:38:01.504Z,92.12
2023-04-12T04:40:11.338Z,91.95
2023-04-12T04:42:13.559Z,92.74
2023-04-12T04:44:26.791Z,92.53
2023-04-12T04:46:32.020Z,92.71
2023-04-12T04:48:33.960Z,93.59
2023-04-12T04:50:35.452Z,93.67
2023-04-12T04:52:39.270Z,94.43
2023-04-12T04:54:44.381Z,94.67
2023-04-12T04:56:46.089Z,94.44
2023-04-12T04:58:50.660Z,94.23
2023-04-12T05:00:57.455Z,94.69
2023-04-12T05:03:00.420Z,95.71
2023-04-12T05:05:04.285Z,96.25
2023-04-12T05:07:07.773Z,96.29
2023-04-12T05:09:10.068Z,96.21
2023-04-12T05:11:17.757Z,96.20
2023-04-12T05:13:19.921Z,96.54
2023-04-12T05:15:21.547Z,97.94
2023-04-12T05:17:23.323Z,98.01
2023-04-12T05:19:25.026Z,96.94
2023-04-12T05:21:27.241Z,98.72
2023-04-12T05:23:28.774Z,97.97
2023-04-12T05:25:30.973Z,97.51
2023-04-12T05:27:39.765Z,96.79
2023-04-12T05:29:43.564Z,96.51
2023-04-12T05:31:45.656Z,96.59
2023-04-12T05:33:54.602Z,97.20
2023-04-12T05:36:00.931Z,97.00
2023-04-12T05:38:03.863Z,97.21
2023-04-12T05:40:07.208Z,96.46
2023-04-12T05:42:08.929Z,95.74
2023-04-12T05:44:11.033Z,96.12
2023-04-12T05:46:12.800Z,96.65
2023-04-12T05:48:15.079Z,96.11
2023-04-12T05:50:16.756Z,97.16
2023-04-12T05:52:18.667Z,97.30
2023-04-12T05:54:21.442Z,97.86
2023-04-12T05:56:25.578Z,98.15
2023-04-12T05:58:27.468Z,97.94
2023-04-12T06:00:30.005Z,97.53
2023-04-12T06:02:32.322Z,97.87
2023-04-12T06:04:48.695Z,98.47
2023-04-12T06:06:52.126Z,97.62
2023-04-12T06:08:54.021Z,97.54
2023-04-12T06:10:55.924Z,97.23
2023-04-12T06:12:57.833Z,97.43
2023-04-12T06:14:59.610Z,97.57
2023-04-12T06:17:01.319Z,98.21
2023-04-12T06:19:02.903Z,99.28
2023-04-12T06:21:05.364Z,98.79
2023-04-12T06:23:07.011Z,98.50
2023-04-12T06:25:09.797Z,99.86
2023-04-12T06:27:11.538Z,100.00
2023-04-12T06:29:13.242Z,99.52
2023-04-12T06:31:16.739Z,100.00
2023-04-12T06:33:18.605Z,100.00
2023-04-12T06:35:21.362Z,100.00
2023-04-12T06:37:22.903Z,99.93
2023-04-12T06:39:24.368Z,99.69
2023-04-12T06:41:25.916Z,99.22
2023-04-12T06:43:34.891Z,99.32
2023-04-12T06:45:36.489Z,99.80
2023-04-12T06:47:38.117Z,100.00
2023-04-12T06:49:39.716Z,99.70
2023-04-12T06:51:41.278Z,99.97
2023-04-12T06:53:42.810Z,100.00
2023-04-12T06:55:44.364Z,100.00
2023-04-12T06:57:46.182Z,100.00
2023-04-12T06:59:47.737Z,100.00
2023-04-12T07:01:49.242Z,100.00
2023-04-12T07:03:50.960Z,100.00
2023-04-12T07:05:55.609Z,100.00
2023-04-12T07:07:57.126Z,100.00
2023-04-12T07:10:00.319Z,100.00
2023-04-12T07:12:02.754Z,100.00
2023-04-12T07:14:04.342Z,100.00
2023-04-12T07:16:06.393Z,100.00
2023-04-12T07:18:08.047Z,100.00
2023-04-12T07:20:10.250Z,100.00
2023-04-12T07:22:13.595Z,100.00
2023-04-12T07:24:15.992Z,100.00
2023-04-12T07:26:18.945Z,100.00
2023-04-12T07:28:21.017Z,100.00
2023-04-12T07:30:23.106Z,100.00
2023-04-12T07:32:24.729Z,100.00
2023-04-12T07:34:26.654Z,100.00
2023-04-12T07:36:28.275Z,100.00
2023-04-12T07:38:29.820Z,99.93
2023-04-12T07:40:31.362Z,100.00
2023-04-12T07:42:32.898Z,100.00
2023-04-12T07:44:37.132Z,100.00
2023-04-12T07:46:41.833Z,100.00
2023-04-12T07:48:43.977Z,99.82
2023-04-12T07:50:45.533Z,99.53
2023-04-12T07:52:47.246Z,99.44
2023-04-12T07:54:48.854Z,99.76
2023-04-12T07:57:01.414Z,100.00
2023-04-12T07:59:03.042Z,100.00
2023-04-12T08:01:04.926Z,100.00
2023-04-12T08:03:06.598Z,100.00
2023-04-12T08:05:08.656Z,100.00
2023-04-12T08:07:10.175Z,100.00
2023-04-12T08:09:11.900Z,100.00
2023-04-12T08:11:13.422Z,100.00
2023-04-12T08:13:15.332Z,100.00
2023-04-12T08:15:16.948Z,100.00
2023-04-12T08:17:18.562Z,100.00
2023-04-12T08:19:20.346Z,100.00
2023-04-12T08:21:22.505Z,100.00
2023-04-12T08:23:25.536Z,100.00
2023-04-12T08:25:27.302Z,100.00
2023-04-12T08:27:29.507Z,100.00
2023-04-12T08:29:31.299Z,100.00
2023-04-12T08:31:33.611Z,100.00
2023-04-12T08:33:38.382Z,100.00
2023-04-12T08:35:39.946Z,100.00
2023-04-12T08:37:42.081Z,100.00
2023-04-12T08:39:43.891Z,100.00
2023-04-12T08:41:45.737Z,100.00
2023-04-12T08:43:48.721Z,100.00
2023-04-12T08:45:50.911Z,100.00
2023-04-12T08:47:52.622Z,100.00
2023-04-12T08:49:56.489Z,100.00
2023-04-12T08:52:05.718Z,100.00
2023-04-12T08:54:07.343Z,100.00
2023-04-12T08:56:13.558Z,100.00
2023-04-12T08:58:15.603Z,100.00
2023-04-12T09:00:18.052Z,100.00
2023-04-12T09:02:19.786Z,100.00
2023-04-12T09:04:21.522Z,100.00
2023-04-12T09:06:23.404Z,100.00
2023-04-12T09:08:25.073Z,100.00
2023-04-12T09:10:37.848Z,100.00
2023-04-12T09:12:46.982Z,100.00
2023-04-12T09:14:48.601Z,100.00
2023-04-12T09:16:50.591Z,100.00
2023-04-12T09:18:52.373Z,100.00
2023-04-12T09:21:08.067Z,100.00
2023-04-12T09:23:20.851Z,100.00
2023-04-12T09:25:45.309Z,99.94
2023-04-12T09:27:58.841Z,100.00
2023-04-12T09:30:08.483Z,100.00
2023-04-12T09:32:10.073Z,100.00
2023-04-12T09:34:11.756Z,100.00
2023-04-12T09:36:14.258Z,100.00
2023-04-12T09:38:15.844Z,100.00
2023-04-12T09:40:24.118Z,100.00
2023-04-12T09:42:34.054Z,100.00
2023-04-12T09:44:36.794Z,100.00
2023-04-12T09:46:50.601Z,99.09
2023-04-12T09:48:54.570Z,98.14
2023-04-12T09:51:00.049Z,99.40
2023-04-12T09:53:03.318Z,100.00
2023-04-12T09:55:10.243Z,99.00
2023-04-12T09:57:13.578Z,98.87
2023-04-12T09:59:17.713Z,100.00
2023-04-12T10:01:21.024Z,100.00
2023-04-12T10:03:22.804Z,100.00
2023-04-12T10:05:26.676Z,100.00
2023-04-12T10:07:29.122Z,100.00
2023-04-12T10:09:31.090Z,100.00
2023-04-12T10:11:34.090Z,100.00
2023-04-12T10:13:37.367Z,99.31
2023-04-12T10:15:40.387Z,100.00
2023-04-12T10:17:48.508Z,100.00
2023-04-12T10:19:50.983Z,100.00
2023-04-12T10:21:53.610Z,100.00
2023-04-12T10:23:55.611Z,99.89
2023-04-12T10:25:58.681Z,98.82
2023-04-12T10:28:18.478Z,98.52
2023-04-12T10:30:20.366Z,98.93
2023-04-12T10:32:23.758Z,99.93
2023-04-12T10:34:31.178Z,100.00
2023-04-12T10:36:58.286Z,100.00
2023-04-12T10:39:10.828Z,100.00
2023-04-12T10:41:15.794Z,100.00
2023-04-12T10:43:20.537Z,100.00
2023-04-12T10:45:25.171Z,100.00
2023-04-12T10:47:53.837Z,100.00
2023-04-12T10:50:25.020Z,99.69
2023-04-12T10:52:26.666Z,99.91
2023-04-12T10:54:35.456Z,100.00
2023-04-12T10:56:38.812Z,100.00
2023-04-12T10:58:49.426Z,99.21
2023-04-12T11:00:56.304Z,100.00
2023-04-12T11:03:07.635Z,99.92
2023-04-12T11:05:11.174Z,98.91
2023-04-12T11:07:44.030Z,99.84
2023-04-12T11:10:20.011Z,99.11
2023-04-12T11:12:28.302Z,98.91
2023-04-12T11:14:45.626Z,99.68
2023-04-12T11:17:05.668Z,99.80
2023-04-12T11:19:07.599Z,99.20
2023-04-12T11:21:09.956Z,98.97
2023-04-12T11:23:12.205Z,98.86
2023-04-12T11:25:17.031Z,98.44
2023-04-12T11:27:20.443Z,97.44
2023-04-12T11:29:27.827Z,97.99
2023-04-12T11:31:29.417Z,99.69
2023-04-12T11:33:32.872Z,99.24
2023-04-12T11:35:34.497Z,98.44
2023-04-12T11:37:36.375Z,99.48
2023-04-12T11:39:43.065Z,99.34
2023-04-12T11:41:45.654Z,98.88
2023-04-12T11:43:47.541Z,98.25
2023-04-12T11:45:49.104Z,99.80
2023-04-12T11:47:52.182Z,99.82
2023-04-12T11:49:58.555Z,99.62
2023-04-12T11:52:04.698Z,100.00
2023-04-12T11:54:06.342Z,99.78
2023-04-12T11:56:10.260Z,98.63
2023-04-12T11:58:11.798Z,98.04
2023-04-12T12:00:14.604Z,98.23
2023-04-12T12:02:23.237Z,97.45
2023-04-12T12:04:26.762Z,99.32
2023-04-12T12:06:29.487Z,99.63
2023-04-12T12:08:31.426Z,100.00
2023-04-12T12:12:39.698Z,99.99
2023-04-12T12:14:44.396Z,98.55
2023-04-12T12:16:54.733Z,99.88
2023-04-12T12:18:57.360Z,99.34
2023-04-12T12:20:58.732Z,99.39
2023-04-12T12:23:00.318Z,99.23
2023-04-12T12:25:01.866Z,99.30
2023-04-12T12:27:04.075Z,98.80
2023-04-12T12:29:05.883Z,98.30
2023-04-12T12:31:10.350Z,98.55
2023-04-12T12:33:14.214Z,97.79
2023-04-12T12:35:15.840Z,97.81
2023-04-12T12:37:20.599Z,97.33
2023-04-12T12:39:22.315Z,98.52
2023-04-12T12:41:24.957Z,97.92
2023-04-12T12:43:26.942Z,99.42
2023-04-12T12:45:31.451Z,98.76
2023-04-12T12:47:33.227Z,99.24
2023-04-12T12:49:34.892Z,98.33
2023-04-12T12:51:36.537Z,98.47
2023-04-12T12:53:39.800Z,97.79
2023-04-12T12:55:41.298Z,96.24
2023-04-12T12:57:49.692Z,96.58
2023-04-12T12:59:56.947Z,95.67
2023-04-12T13:01:58.527Z,95.72
2023-04-12T13:04:00.354Z,95.69
2023-04-12T13:06:02.061Z,95.71
2023-04-12T13:08:03.644Z,96.97
2023-04-12T13:10:06.169Z,94.37
2023-04-12T13:12:08.006Z,95.07
2023-04-12T13:14:09.613Z,97.29
2023-04-12T13:16:11.465Z,95.88
2023-04-12T13:18:16.930Z,96.90
2023-04-12T13:20:18.578Z,97.37
2023-04-12T13:22:20.686Z,95.67
2023-04-12T13:24:22.243Z,96.63
2023-04-12T13:26:25.683Z,96.20
2023-04-12T13:28:27.463Z,97.51
2023-04-12T13:30:29.268Z,95.86
2023-04-12T13:32:30.923Z,98.23
2023-04-12T13:34:32.798Z,98.08
2023-04-12T13:36:34.369Z,97.91
2023-04-12T13:38:36.141Z,98.09
2023-04-12T13:40:37.689Z,98.87
2023-04-12T13:42:39.501Z,99.29
2023-04-12T13:44:41.081Z,98.46
2023-04-12T13:46:42.593Z,99.48
2023-04-12T13:48:44.199Z,98.95
2023-04-12T13:50:46.806Z,99.65
2023-04-12T13:52:49.222Z,99.21
2023-04-12T13:54:51.593Z,97.82
2023-04-12T13:56:53.858Z,97.88
2023-04-12T13:58:56.443Z,98.01
2023-04-12T14:01:00.358Z,97.58
2023-04-12T14:03:02.495Z,97.71
2023-04-12T14:05:04.679Z,97.35
2023-04-12T14:07:06.231Z,96.83
2023-04-12T14:09:08.742Z,97.79
2023-04-12T14:11:10.239Z,97.88
2023-04-12T14:13:11.801Z,97.73
2023-04-12T14:15:13.851Z,97.51
2023-04-12T14:17:15.571Z,97.34
2023-04-12T14:19:17.114Z,95.44
2023-04-12T14:21:18.692Z,96.51
2023-04-12T14:23:25.859Z,95.50
2023-04-12T14:25:27.525Z,95.20
2023-04-12T14:27:29.108Z,95.59
2023-04-12T14:29:30.652Z,95.93
2023-04-12T14:31:32.885Z,94.02
2023-04-12T14:33:34.421Z,94.30
2023-04-12T14:35:36.485Z,95.65
2023-04-12T14:37:39.205Z,95.72
2023-04-12T14:39:40.828Z,95.24
2023-04-12T14:41:42.405Z,94.48
2023-04-12T14:43:44.041Z,95.32
2023-04-12T14:45:45.665Z,94.96
2023-04-12T14:47:47.260Z,93.74
2023-04-12T14:49:48.924Z,93.20
2023-04-12T14:51:50.443Z,93.04
2023-04-12T14:53:52.184Z,94.31
2023-04-12T14:55:53.907Z,95.27
2023-04-12T14:57:55.410Z,95.60
2023-04-12T14:59:57.092Z,95.03
2023-04-12T15:01:59.367Z,94.87
2023-04-12T15:04:01.622Z,95.54
2023-04-12T15:06:03.759Z,92.86
2023-04-12T15:08:05.449Z,92.63
2023-04-12T15:10:07.562Z,92.11
2023-04-12T15:12:09.277Z,92.49
2023-04-12T15:14:10.768Z,93.02
2023-04-12T15:16:12.408Z,92.77
2023-04-12T15:18:15.383Z,93.91
2023-04-12T15:20:17.191Z,91.86
2023-04-12T15:22:18.796Z,90.61
2023-04-12T15:24:22.200Z,90.66
2023-04-12T15:26:23.725Z,90.02
2023-04-12T15:28:25.262Z,90.79
2023-04-12T15:30:27.122Z,90.11
2023-04-12T15:32:29.285Z,91.21
2023-04-12T15:34:33.752Z,91.68
2023-04-12T15:36:36.868Z,90.53
2023-04-12T15:38:42.453Z,91.06
2023-04-12T15:40:44.177Z,91.53
2023-04-12T15:42:45.863Z,91.08
2023-04-12T15:44:47.441Z,91.07
2023-04-12T15:46:59.345Z,92.41
2023-04-12T15:49:10.736Z,91.88
2023-04-12T15:51:13.728Z,92.21
2023-04-12T15:53:24.080Z,91.65
2023-04-12T15:55:25.597Z,92.79
2023-04-12T15:57:27.553Z,93.25
2023-04-12T15:59:29.956Z,92.66
2023-04-12T16:01:31.684Z,93.47
2023-04-12T16:03:33.752Z,92.90
2023-04-12T16:05:35.910Z,92.61
2023-04-12T16:07:40.434Z,91.88
2023-04-12T16:09:42.303Z,91.58
2023-04-12T16:11:43.998Z,88.20
2023-04-12T16:13:48.027Z,88.71
2023-04-12T16:15:49.791Z,90.36
2023-04-12T16:17:53.299Z,88.86
2023-04-12T16:19:55.204Z,88.51
2023-04-12T16:21:56.892Z,86.85
2023-04-12T16:23:58.578Z,88.16
2023-04-12T16:26:00.223Z,85.37
2023-04-12T16:28:02.541Z,84.81
2023-04-12T16:30:05.197Z,84.94
2023-04-12T16:32:08.045Z,83.93
2023-04-12T16:34:10.871Z,84.67
2023-04-12T16:36:12.368Z,84.48
2023-04-12T16:38:15.798Z,84.14
2023-04-12T16:40:19.322Z,84.83
2023-04-12T16:42:23.912Z,85.88
2023-04-12T16:44:25.895Z,85.64
2023-04-12T16:46:27.437Z,86.60
2023-04-12T16:48:28.948Z,87.09
2023-04-12T16:50:30.483Z,86.40
2023-04-12T16:52:32.030Z,86.43
2023-04-12T16:54:33.657Z,87.23
2023-04-12T16:56:35.458Z,86.41
2023-04-12T16:58:37.294Z,79.92
2023-04-12T17:00:38.954Z,79.94
2023-04-12T17:02:41.486Z,78.57
2023-04-12T17:04:44.211Z,80.48
2023-04-12T17:06:46.064Z,75.35
2023-04-12T17:08:48.843Z,76.66
2023-04-12T17:10:50.843Z,77.58
2023-04-12T17:12:54.552Z,78.70
2023-04-12T17:14:56.216Z,78.20
2023-04-12T17:16:57.804Z,79.57
2023-04-12T17:18:59.705Z,80.29
2023-04-12T17:21:01.666Z,79.67
2023-04-12T17:23:03.471Z,79.71
2023-04-12T17:25:06.927Z,81.55
2023-04-12T17:27:08.530Z,82.92
2023-04-12T17:29:10.166Z,83.12
2023-04-12T17:31:11.710Z,82.92
2023-04-12T17:33:13.243Z,83.50
2023-04-12T17:35:14.875Z,82.65
2023-04-12T17:37:16.685Z,82.27
2023-04-12T17:39:18.253Z,82.13
2023-04-12T17:41:19.805Z,83.08
2023-04-12T17:43:21.334Z,83.02
2023-04-12T17:45:23.706Z,83.21
2023-04-12T17:47:25.270Z,83.50
2023-04-12T17:49:26.904Z,84.38
2023-04-12T17:51:29.136Z,84.47
2023-04-12T17:53:30.644Z,84.03
2023-04-12T17:55:32.550Z,84.23
2023-04-12T17:57:34.201Z,84.25
2023-04-12T17:59:36.516Z,84.72
2023-04-12T18:01:38.069Z,84.57
2023-04-12T18:03:40.071Z,84.20
2023-04-12T18:05:42.884Z,84.01
2023-04-12T18:07:44.651Z,83.43
2023-04-12T18:09:46.307Z,83.52
2023-04-12T18:11:48.136Z,84.56
2023-04-12T18:13:49.618Z,84.84
2023-04-12T18:15:51.279Z,85.20
2023-04-12T18:17:53.642Z,84.96
2023-04-12T18:19:55.295Z,84.58
2023-04-12T18:21:56.853Z,84.02
2023-04-12T18:24:00.218Z,84.15
2023-04-12T18:26:04.355Z,84.25
2023-04-12T18:28:07.387Z,84.66
2023-04-12T18:30:09.367Z,84.75
2023-04-12T18:32:11.189Z,84.06
2023-04-12T18:34:14.056Z,83.79
2023-04-12T18:36:16.608Z,83.93
2023-04-12T18:38:18.568Z,83.68
2023-04-12T18:40:21.415Z,83.98
2023-04-12T18:42:23.055Z,83.40
2023-04-12T18:44:24.629Z,83.93
2023-04-12T18:46:26.933Z,83.79
2023-04-12T18:48:30.246Z,83.97
2023-04-12T18:50:31.746Z,84.26
2023-04-12T18:52:34.606Z,84.71
2023-04-12T18:54:36.272Z,84.64
2023-04-12T18:56:38.027Z,84.48
2023-04-12T18:58:53.828Z,84.34
2023-04-12T19:00:56.456Z,84.84
2023-04-12T19:02:58.125Z,84.76
2023-04-12T19:04:59.664Z,84.54
2023-04-12T19:07:01.227Z,84.33
2023-04-12T19:09:03.794Z,84.62
2023-04-12T19:11:05.635Z,83.93
2023-04-12T19:13:07.341Z,83.67
2023-04-12T19:15:09.624Z,83.20
2023-04-12T19:17:11.130Z,83.65
2023-04-12T19:19:12.770Z,83.42
2023-04-12T19:21:14.315Z,83.44
2023-04-12T19:23:16.428Z,83.14
2023-04-12T19:25:19.706Z,82.20
2023-04-12T19:27:22.773Z,83.31
2023-04-12T19:29:25.476Z,82.62
2023-04-12T19:31:27.090Z,82.65
2023-04-12T19:33:28.696Z,83.34
2023-04-12T19:35:32.827Z,83.84
2023-04-12T19:37:34.688Z,83.01
2023-04-12T19:39:37.645Z,83.18
2023-04-12T19:41:39.209Z,82.06
2023-04-12T19:43:40.954Z,82.24
2023-04-12T19:45:44.032Z,82.71
2023-04-12T19:47:45.894Z,82.39
2023-04-12T19:49:49.027Z,80.27
2023-04-12T19:51:50.873Z,79.91
2023-04-12T19:53:54.584Z,83.38
2023-04-12T19:55:57.302Z,83.61
2023-04-12T19:57:59.045Z,84.11
2023-04-12T20:00:01.428Z,83.87
2023-04-12T20:02:07.057Z,83.36
2023-04-12T20:04:08.813Z,84.79
2023-04-12T20:06:10.856Z,86.21
2023-04-12T20:08:12.337Z,87.19
2023-04-12T20:10:15.296Z,88.09
2023-04-12T20:12:17.795Z,88.58
2023-04-12T20:14:19.708Z,87.93
2023-04-12T20:16:21.379Z,86.21
2023-04-12T20:18:23.239Z,87.05
2023-04-12T20:20:24.788Z,87.72
2023-04-12T20:22:26.533Z,87.60
2023-04-12T20:24:30.073Z,89.01
2023-04-12T20:26:32.119Z,88.63
2023-04-12T20:28:34.253Z,88.14
2023-04-12T20:30:39.326Z,88.30
2023-04-12T20:32:40.997Z,87.79
2023-04-12T20:34:47.284Z,87.21
2023-04-12T20:36:49.108Z,86.99
2023-04-12T20:38:50.810Z,86.98
2023-04-12T20:40:52.518Z,87.12
2023-04-12T20:42:54.076Z,86.65
2023-04-12T20:44:55.974Z,87.24
2023-04-12T20:46:58.551Z,87.43
2023-04-12T20:49:00.356Z,87.28
2023-04-12T20:51:03.303Z,86.14
2023-04-12T20:53:04.933Z,85.83
2023-04-12T20:55:07.265Z,85.41
2023-04-12T20:57:09.527Z,85.53
2023-04-12T20:59:11.119Z,86.37
2023-04-12T21:01:15.038Z,89.08
2023-04-12T21:03:17.594Z,88.29
2023-04-12T21:05:20.053Z,91.17
2023-04-12T21:07:25.724Z,89.14
2023-04-12T21:09:27.761Z,89.10
2023-04-12T21:11:29.308Z,87.79
2023-04-12T21:13:30.916Z,91.29
2023-04-12T21:15:35.206Z,95.73
2023-04-12T21:17:37.027Z,96.79
2023-04-12T21:19:41.882Z,97.54
2023-04-12T21:21:44.801Z,95.95
2023-04-12T21:23:46.316Z,93.66
2023-04-12T21:25:50.882Z,92.98
2023-04-12T21:27:53.181Z,92.54
2023-04-12T21:29:54.714Z,92.43
2023-04-12T21:31:56.912Z,91.42
2023-04-12T21:33:59.129Z,91.06
2023-04-12T21:36:01.245Z,90.54
2023-04-12T21:38:02.787Z,90.13
2023-04-12T21:40:09.032Z,89.00
2023-04-12T21:42:10.924Z,88.38
2023-04-12T21:44:12.639Z,88.51
2023-04-12T21:46:14.521Z,87.74
2023-04-12T21:48:16.413Z,88.16
2023-04-12T21:50:17.926Z,87.65
2023-04-12T21:52:19.575Z,87.62
2023-04-12T21:54:21.102Z,88.35
2023-04-12T21:56:22.690Z,88.20
2023-04-12T21:58:24.319Z,89.16
2023-04-12T22:00:27.059Z,89.36
2023-04-12T22:02:28.708Z,89.73
2023-04-12T22:04:30.286Z,91.65
2023-04-12T22:06:31.769Z,91.83
2023-04-12T22:08:33.954Z,91.24
2023-04-12T22:10:35.632Z,91.00
2023-04-12T22:12:38.457Z,91.29
2023-04-12T22:14:46.392Z,90.90
2023-04-12T22:16:49.702Z,90.69
2023-04-12T22:18:51.305Z,90.97
2023-04-12T22:20:53.243Z,90.52
2023-04-12T22:22:56.096Z,90.12
2023-04-12T22:24:57.668Z,90.88
2023-04-12T22:26:59.212Z,90.45
2023-04-12T22:29:00.691Z,90.85
2023-04-12T22:31:02.605Z,90.99
2023-04-12T22:33:04.447Z,89.90
2023-04-12T22:35:08.745Z,89.69
2023-04-12T22:37:11.835Z,89.55
2023-04-12T22:39:15.447Z,89.90
2023-04-12T22:41:17.231Z,90.17
2023-04-12T22:43:20.744Z,89.91
2023-04-12T22:45:22.266Z,90.29
2023-04-12T22:47:26.373Z,90.63
2023-04-12T22:49:28.542Z,90.48
2023-04-12T22:51:31.579Z,89.63
2023-04-12T22:53:33.285Z,90.06
2023-04-12T22:55:36.717Z,90.02
2023-04-12T22:57:38.664Z,89.64
2023-04-12T22:59:40.208Z,90.42
2023-04-12T23:01:41.888Z,89.45
2023-04-12T23:03:44.565Z,88.72
2023-04-12T23:05:46.508Z,88.73
2023-04-12T23:07:49.305Z,88.75
2023-04-12T23:09:51.073Z,88.16
2023-04-12T23:11:52.837Z,89.00
2023-04-12T23:13:54.971Z,88.47
2023-04-12T23:15:57.683Z,88.43
2023-04-12T23:18:01.461Z,88.78
2023-04-12T23:20:09.725Z,88.65
2023-04-12T23:22:11.363Z,88.09
2023-04-12T23:24:15.298Z,88.41
2023-04-12T23:26:18.143Z,87.60
2023-04-12T23:28:21.614Z,87.95
2023-04-12T23:30:26.292Z,87.20
2023-04-12T23:32:27.859Z,87.14
2023-04-12T23:34:30.699Z,86.90
2023-04-12T23:36:33.820Z,86.88
2023-04-12T23:38:38.418Z,85.86
2023-04-12T23:40:39.972Z,86.30
2023-04-12T23:42:43.276Z,86.73
2023-04-12T23:44:46.444Z,86.45
2023-04-12T23:46:47.900Z,86.65
2023-04-12T23:48:49.544Z,86.69
2023-04-12T23:50:51.919Z,86.62
2023-04-12T23:52:53.776Z,86.19
2023-04-12T23:54:55.336Z,86.13
2023-04-12T23:56:56.837Z,86.16
2023-04-12T23:58:58.421Z,86.48
